Terminal Aerodrome Forecast
Issued by NWS

Home | Current Version | Previous Version | Text Only | Print | Product List | Glossary On
Versions: 1 2 3 4 5 6 7 8 9 10 11 12 13 14 15 16 17 18
143
FTUS41 KBTV 270825 AAA
TAFMSS
TAF AMD
KMSS 270825Z 2708/2806 00000KT 6SM BR SCT008
      TEMPO 2708/2711 1/4SM FG OVC008
     FM271200 20006KT P6SM SKC
     FM271600 22008KT 4SM SHRA BR OVC040
     FM272000 23009KT P6SM VCSH BKN040
     FM272200 23009KT P6SM SCT100=

USA.gov is the U.S. government's official web portal to all federal, state and local government web resources and services.